Elda A — WDH6629 — position and weather

sailwx.info

Track history (hours):
 
Tides and Currents Weather Stations Pressure Air Temp Water Temp Dewpoint Dewpoint Depression Visibility Wind Speed Wind Dir Waves Ship Positions

Elda A

Owner: REC Marine Logistics, Galliano, LA. More information available from US FCC via Universal Licensing System and Coast Guard Vessel Documentation Center.

Last reported at 2017-Sep-25 01:32 UTC. Time now 2017-Sep-26 11:09 UTC.
Position N 29°33' W 090°24'.

Length 14 m.

Type: Tug. MMSI: 367639990.

Date/timePositionNaut miles runAvg speedWind from/ knotsBaromVisibWave heightAir tempDewpointWater temp
2017-Sep-25 01:32N 29°33' W 090°24'1 8.3
2017-Sep-25 01:26N 29°33' W 090°25'4 8.0
2017-Sep-25 00:59N 29°34' W 090°29'4 8.3
2017-Sep-25 00:31N 29°34' W 090°34'3 6.9
2017-Sep-25 00:00N 29°35' W 090°37'4 7.7
2017-Sep-24 23:30N 29°36' W 090°41'2 4.4
2017-Sep-24 23:01N 29°35' W 090°43'0 0.0
2017-Sep-24 22:30N 29°35' W 090°43'3 6.5
2017-Sep-24 22:01N 29°32' W 090°42'4 8.1
2017-Sep-24 21:31N 29°28' W 090°43'3 1.2
2017-Sep-24 18:59N 29°25' W 090°44'3 7.0
2017-Sep-24 18:31N 29°28' W 090°43'3 6.9
2017-Sep-24 18:00N 29°31' W 090°42'3 5.8
2017-Sep-24 17:30N 29°34' W 090°43'3 5.4
2017-Sep-24 17:01N 29°32' W 090°46'3 6.1
2017-Sep-24 16:31N 29°32' W 090°49'3 6.1
2017-Sep-24 16:01N 29°32' W 090°53'3 6.0
2017-Sep-24 15:29N 29°34' W 090°56'1 0.1
2017-Sep-24 02:24N 29°34' W 090°57'3 8.0
2017-Sep-24 02:00N 29°33' W 090°54'4 8.2
2017-Sep-24 01:30N 29°32' W 090°49'4 7.3
2017-Sep-24 01:01N 29°33' W 090°45'3 6.7
2017-Sep-24 00:30N 29°36' W 090°43'3 5.5
2017-Sep-24 00:00N 29°36' W 090°39'4 7.9
2017-Sep-23 23:30N 29°35' W 090°35'4 8.0
2017-Sep-23 23:00N 29°34' W 090°31'4 8.4
2017-Sep-23 22:31N 29°33' W 090°26'  
2017-Sep-21 03:26N 29°21' W 090°44'1 2.0
2017-Sep-21 03:00N 29°22' W 090°44'1 2.7
2017-Sep-21 02:29N 29°23' W 090°44'2 3.7
2017-Sep-21 02:00N 29°25' W 090°44'2 4.3
2017-Sep-21 01:30N 29°27' W 090°43'2 4.3
2017-Sep-21 01:00N 29°29' W 090°43'2 4.2
2017-Sep-21 00:30N 29°31' W 090°42'2 3.8
2017-Sep-21 00:00N 29°33' W 090°42'1 2.6
2017-Sep-20 23:30N 29°34' W 090°43'1 2.2
2017-Sep-20 23:00N 29°34' W 090°44'0 0.0
2017-Sep-20 22:30N 29°34' W 090°44'0 0.0
2017-Sep-20 22:00N 29°34' W 090°44'0 0.0
2017-Sep-20 21:30N 29°34' W 090°44'0 0.0
2017-Sep-20 21:00N 29°34' W 090°44'0 0.0
2017-Sep-20 20:30N 29°34' W 090°44'0 0.0
2017-Sep-20 20:00N 29°34' W 090°44'0 0.0
2017-Sep-20 19:30N 29°34' W 090°44'0 0.0
2017-Sep-20 19:00N 29°34' W 090°44'0 0.0
2017-Sep-20 18:30N 29°34' W 090°44'2 3.4
2017-Sep-20 18:00N 29°32' W 090°46'2 3.8
2017-Sep-20 17:30N 29°32' W 090°48'2 4.0
2017-Sep-20 17:00N 29°32' W 090°50'1 2.8
2017-Sep-20 16:30N 29°32' W 090°52'3 4.6
2017-Sep-20 15:58N 29°33' W 090°54'2 4.4
2017-Sep-20 15:26N 29°34' W 090°57'1 0.1
2017-Sep-20 02:50N 29°34' W 090°56'3 7.7
2017-Sep-20 02:23N 29°32' W 090°52'3 8.1
2017-Sep-20 02:00N 29°32' W 090°49'4 7.3
2017-Sep-20 01:30N 29°34' W 090°45'3 6.4
2017-Sep-20 01:00N 29°36' W 090°43'3 5.7
2017-Sep-20 00:30N 29°36' W 090°39'3 7.0
2017-Sep-20 00:00N 29°35' W 090°36'4 7.3
2017-Sep-19 23:30N 29°34' W 090°32'6 7.8
2017-Sep-19 22:44N 29°33' W 090°25'  
Track history (hours):
 
Tides and Currents Weather Stations Pressure Air Temp Water Temp Dewpoint Dewpoint Depression Visibility Wind Speed Wind Dir Waves Ship Positions

Elda A

Owner: REC Marine Logistics, Galliano, LA. More information available from US FCC via Universal Licensing System and Coast Guard Vessel Documentation Center.

Last reported at 2017-Sep-25 01:32 UTC. Time now 2017-Sep-26 11:09 UTC.
Position N 29°33' W 090°24'.

Length 14 m.

Type: Tug. MMSI: 367639990.

Date/timePositionNaut miles runAvg speedWind from/ knotsBaromVisibWave heightAir tempDewpointWater temp
2017-Sep-25 01:32N 29°33' W 090°24'1 8.3
2017-Sep-25 01:26N 29°33' W 090°25'4 8.0
2017-Sep-25 00:59N 29°34' W 090°29'4 8.3
2017-Sep-25 00:31N 29°34' W 090°34'3 6.9
2017-Sep-25 00:00N 29°35' W 090°37'4 7.7
2017-Sep-24 23:30N 29°36' W 090°41'2 4.4
2017-Sep-24 23:01N 29°35' W 090°43'0 0.0
2017-Sep-24 22:30N 29°35' W 090°43'3 6.5
2017-Sep-24 22:01N 29°32' W 090°42'4 8.1
2017-Sep-24 21:31N 29°28' W 090°43'3 1.2
2017-Sep-24 18:59N 29°25' W 090°44'3 7.0
2017-Sep-24 18:31N 29°28' W 090°43'3 6.9
2017-Sep-24 18:00N 29°31' W 090°42'3 5.8
2017-Sep-24 17:30N 29°34' W 090°43'3 5.4
2017-Sep-24 17:01N 29°32' W 090°46'3 6.1
2017-Sep-24 16:31N 29°32' W 090°49'3 6.1
2017-Sep-24 16:01N 29°32' W 090°53'3 6.0
2017-Sep-24 15:29N 29°34' W 090°56'1 0.1
2017-Sep-24 02:24N 29°34' W 090°57'3 8.0
2017-Sep-24 02:00N 29°33' W 090°54'4 8.2
2017-Sep-24 01:30N 29°32' W 090°49'4 7.3
2017-Sep-24 01:01N 29°33' W 090°45'3 6.7
2017-Sep-24 00:30N 29°36' W 090°43'3 5.5
2017-Sep-24 00:00N 29°36' W 090°39'4 7.9
2017-Sep-23 23:30N 29°35' W 090°35'4 8.0
2017-Sep-23 23:00N 29°34' W 090°31'4 8.4
2017-Sep-23 22:31N 29°33' W 090°26'  
2017-Sep-21 03:26N 29°21' W 090°44'1 2.0
2017-Sep-21 03:00N 29°22' W 090°44'1 2.7
2017-Sep-21 02:29N 29°23' W 090°44'2 3.7
2017-Sep-21 02:00N 29°25' W 090°44'2 4.3
2017-Sep-21 01:30N 29°27' W 090°43'2 4.3
2017-Sep-21 01:00N 29°29' W 090°43'2 4.2
2017-Sep-21 00:30N 29°31' W 090°42'2 3.8
2017-Sep-21 00:00N 29°33' W 090°42'1 2.6
2017-Sep-20 23:30N 29°34' W 090°43'1 2.2
2017-Sep-20 23:00N 29°34' W 090°44'0 0.0
2017-Sep-20 22:30N 29°34' W 090°44'0 0.0
2017-Sep-20 22:00N 29°34' W 090°44'0 0.0
2017-Sep-20 21:30N 29°34' W 090°44'0 0.0
2017-Sep-20 21:00N 29°34' W 090°44'0 0.0
2017-Sep-20 20:30N 29°34' W 090°44'0 0.0
2017-Sep-20 20:00N 29°34' W 090°44'0 0.0
2017-Sep-20 19:30N 29°34' W 090°44'0 0.0
2017-Sep-20 19:00N 29°34' W 090°44'0 0.0
2017-Sep-20 18:30N 29°34' W 090°44'2 3.4
2017-Sep-20 18:00N 29°32' W 090°46'2 3.8
2017-Sep-20 17:30N 29°32' W 090°48'2 4.0
2017-Sep-20 17:00N 29°32' W 090°50'1 2.8
2017-Sep-20 16:30N 29°32' W 090°52'3 4.6
2017-Sep-20 15:58N 29°33' W 090°54'2 4.4
2017-Sep-20 15:26N 29°34' W 090°57'1 0.1
2017-Sep-20 02:50N 29°34' W 090°56'3 7.7
2017-Sep-20 02:23N 29°32' W 090°52'3 8.1
2017-Sep-20 02:00N 29°32' W 090°49'4 7.3
2017-Sep-20 01:30N 29°34' W 090°45'3 6.4
2017-Sep-20 01:00N 29°36' W 090°43'3 5.7
2017-Sep-20 00:30N 29°36' W 090°39'3 7.0
2017-Sep-20 00:00N 29°35' W 090°36'4 7.3
2017-Sep-19 23:30N 29°34' W 090°32'6 7.8
2017-Sep-19 22:44N 29°33' W 090°25'  

Dump ship's entire track history